Time;durP1;ratioP1;P1;durP2;ratioP2;P2;SDS_P1;SDS_P2;PMS_P1;PMS_P2;Temp;Humidity;BMP_temperature;BMP_pressure;BME280_temperature;BME280_humidity;BME280_pressure;Samples;Min_cycle;Max_cycle;Signal;HPM_P1;HPM_P2
2024/01/12 00:01:51;;;;;;;1999.90;999.90;;;-5.00;96.60;;;;;;5078720;28;20520;-74
2024/01/12 00:04:20;;;;;;;1999.90;999.90;;;-5.00;96.50;;;;;;5066856;28;20032;-74
2024/01/12 00:06:46;;;;;;;1999.90;999.90;;;-4.80;96.60;;;;;;5055078;28;20096;-75
2024/01/12 00:09:12;;;;;;;1999.90;999.90;;;-5.20;96.50;;;;;;5071870;28;20490;-75
2024/01/12 00:11:38;;;;;;;1999.90;999.90;;;-5.30;96.60;;;;;;5070113;28;20059;-74
2024/01/12 00:14:03;;;;;;;1999.90;999.90;;;-5.30;96.70;;;;;;5058116;28;20059;-73
2024/01/12 00:16:29;;;;;;;1999.90;999.90;;;-5.20;96.90;;;;;;5071983;28;20029;-74
2024/01/12 00:18:55;;;;;;;1999.90;999.90;;;-5.00;96.80;;;;;;5054654;28;20027;-74
2024/01/12 00:21:20;;;;;;;1999.90;999.90;;;-4.90;96.90;;;;;;5051385;28;20087;-74
2024/01/12 00:23:47;;;;;;;1999.90;999.90;;;-4.90;96.80;;;;;;5053519;28;20028;-75
2024/01/12 00:29:35;;;;;;;1999.90;999.90;;;-5.10;96.70;;;;;;5074625;28;20019;-73
2024/01/12 00:32:01;;;;;;;1999.90;999.90;;;-5.00;96.90;;;;;;5055561;28;20028;-73
2024/01/12 00:34:26;;;;;;;1999.90;999.90;;;-5.00;97.00;;;;;;5069457;28;20114;-73
2024/01/12 00:36:53;;;;;;;1999.90;999.90;;;-4.80;97.00;;;;;;5071404;28;20098;-75
2024/01/12 00:39:19;;;;;;;1999.90;999.90;;;-4.70;96.90;;;;;;5056723;28;20032;-73
2024/01/12 00:41:45;;;;;;;1999.90;999.90;;;-4.70;96.80;;;;;;5072515;28;20032;-74
2024/01/12 00:44:11;;;;;;;1999.90;999.90;;;-4.80;97.00;;;;;;5055772;28;20083;-73
2024/01/12 00:46:36;;;;;;;1999.90;999.90;;;-4.70;96.80;;;;;;5070219;28;20027;-73
2024/01/12 00:49:05;;;;;;;1999.90;999.90;;;-4.90;96.80;;;;;;5066294;28;20032;-73
2024/01/12 00:51:31;;;;;;;1999.90;999.90;;;-4.90;96.90;;;;;;5056976;28;20033;-73
2024/01/12 00:53:56;;;;;;;1999.90;999.90;;;-5.00;96.90;;;;;;5070637;28;20131;-73
2024/01/12 00:56:22;;;;;;;1999.90;999.90;;;-4.90;96.80;;;;;;5068116;28;20039;-73
2024/01/12 00:58:50;;;;;;;1999.90;999.90;;;-4.80;96.80;;;;;;5071709;28;20497;-74
2024/01/12 01:01:17;;;;;;;1999.90;999.90;;;-4.90;96.70;;;;;;5054343;28;20028;-74
2024/01/12 01:03:42;;;;;;;1999.90;999.90;;;-4.90;96.70;;;;;;5068089;28;20140;-73
2024/01/12 01:06:08;;;;;;;1999.90;999.90;;;-4.80;96.90;;;;;;5068381;28;20543;-74
2024/01/12 01:08:34;;;;;;;1999.90;999.90;;;-4.70;96.80;;;;;;5070213;28;20035;-74
2024/01/12 01:10:59;;;;;;;1999.90;999.90;;;-4.90;96.70;;;;;;5040581;28;20074;-75
2024/01/12 01:13:25;;;;;;;1999.90;999.90;;;-4.90;96.80;;;;;;5072781;28;20047;-73
2024/01/12 01:15:51;;;;;;;1999.90;999.90;;;-4.80;96.80;;;;;;5071822;28;20119;-73
2024/01/12 01:18:17;;;;;;;1999.90;999.90;;;-5.00;96.70;;;;;;5054418;28;20104;-73
2024/01/12 01:20:43;;;;;;;1999.90;999.90;;;-4.90;96.90;;;;;;5057245;28;20021;-74
2024/01/12 01:23:09;;;;;;;1999.90;999.90;;;-4.80;96.90;;;;;;5070079;28;20091;-74
2024/01/12 01:25:37;;;;;;;1999.90;999.90;;;-4.80;96.90;;;;;;5068521;28;20391;-74
2024/01/12 01:28:03;;;;;;;1999.90;999.90;;;-4.80;96.80;;;;;;5068423;28;20028;-74
2024/01/12 01:30:28;;;;;;;1999.90;999.90;;;-5.00;96.80;;;;;;5068503;28;20070;-74
2024/01/12 01:32:54;;;;;;;1999.90;999.90;;;-5.00;96.70;;;;;;5065268;28;20119;-73
2024/01/12 01:35:39;;;;;;;1999.90;999.90;;;-5.00;96.70;;;;;;5053487;28;20033;-74
2024/01/12 01:38:05;;;;;;;1999.90;999.90;;;-5.00;96.80;;;;;;5069752;28;20036;-74
2024/01/12 01:40:33;;;;;;;1999.90;999.90;;;-5.00;96.80;;;;;;5053750;28;20098;-73
2024/01/12 01:43:09;;;;;;;1999.90;999.90;;;-4.80;96.70;;;;;;5037437;28;20031;-75
2024/01/12 01:45:36;;;;;;;1999.90;999.90;;;-4.70;96.80;;;;;;5069312;28;20112;-74
2024/01/12 01:48:04;;;;;;;1999.90;999.90;;;-4.70;96.80;;;;;;5056114;28;20102;-75
2024/01/12 01:50:31;;;;;;;1999.90;999.90;;;-4.70;96.80;;;;;;5069474;28;20032;-74
2024/01/12 01:52:57;;;;;;;1999.90;999.90;;;-4.80;96.80;;;;;;5071780;28;20074;-74
2024/01/12 01:55:23;;;;;;;1999.90;999.90;;;-4.80;96.70;;;;;;5055623;28;20082;-74
2024/01/12 01:57:50;;;;;;;1999.90;999.90;;;-4.70;96.90;;;;;;5065666;28;20470;-75
2024/01/12 02:00:17;;;;;;;1999.90;999.90;;;-4.70;96.80;;;;;;5069915;28;20079;-74
2024/01/12 02:02:43;;;;;;;1999.90;999.90;;;-4.80;96.70;;;;;;5052751;28;20037;-74
2024/01/12 02:05:11;;;;;;;1999.90;999.90;;;-4.80;96.60;;;;;;5070177;28;20111;-73
2024/01/12 02:07:40;;;;;;;1999.90;999.90;;;-4.90;96.60;;;;;;5053480;28;20036;-74
2024/01/12 02:10:06;;;;;;;1999.90;999.90;;;-4.90;96.40;;;;;;5072609;28;20073;-75
2024/01/12 02:12:39;;;;;;;1999.90;999.90;;;-5.00;96.40;;;;;;5069920;28;20225;-74
2024/01/12 02:15:08;;;;;;;1999.90;999.90;;;-5.10;96.40;;;;;;5068188;28;20029;-73
2024/01/12 02:17:35;;;;;;;1999.90;999.90;;;-5.00;96.60;;;;;;5075860;28;20290;-73
2024/01/12 02:20:01;;;;;;;1999.90;999.90;;;-5.10;96.50;;;;;;5079582;28;20029;-73
2024/01/12 02:22:27;;;;;;;1999.90;999.90;;;-5.10;96.60;;;;;;5070735;28;20047;-74
2024/01/12 02:24:53;;;;;;;1999.90;999.90;;;-4.90;96.60;;;;;;5062062;28;20041;-74
2024/01/12 02:27:20;;;;;;;1999.90;999.90;;;-5.00;96.60;;;;;;5067164;28;20464;-74
2024/01/12 02:29:49;;;;;;;1999.90;999.90;;;-5.00;96.60;;;;;;5070753;28;20593;-75
2024/01/12 02:32:14;;;;;;;1999.90;999.90;;;-5.10;96.50;;;;;;5065261;28;20033;-74
2024/01/12 02:34:40;;;;;;;1999.90;999.90;;;-5.20;96.60;;;;;;5055584;28;20549;-74
2024/01/12 02:37:06;;;;;;;1999.90;999.90;;;-5.20;96.70;;;;;;5071165;28;20107;-74
2024/01/12 02:39:31;;;;;;;1999.90;999.90;;;-5.20;96.70;;;;;;5070709;28;20075;-74
2024/01/12 02:41:57;;;;;;;1999.90;999.90;;;-5.20;96.60;;;;;;5072677;28;20033;-73
2024/01/12 02:44:24;;;;;;;1999.90;999.90;;;-5.20;96.60;;;;;;5072969;28;20088;-74
2024/01/12 02:46:50;;;;;;;1999.90;999.90;;;-5.10;96.60;;;;;;5073776;28;20029;-74
2024/01/12 02:49:15;;;;;;;1999.90;999.90;;;-5.10;96.50;;;;;;5053655;28;20028;-74
2024/01/12 02:51:41;;;;;;;1999.90;999.90;;;-5.20;96.50;;;;;;5071761;28;20104;-74
2024/01/12 02:54:07;;;;;;;1999.90;999.90;;;-5.20;96.50;;;;;;5067696;28;20032;-73
2024/01/12 02:56:32;;;;;;;1999.90;999.90;;;-5.20;96.50;;;;;;5067552;28;20107;-74
2024/01/12 02:58:58;;;;;;;1999.90;999.90;;;-5.30;96.40;;;;;;5071325;28;20028;-74
2024/01/12 03:01:24;;;;;;;1999.90;999.90;;;-5.30;96.50;;;;;;5069549;28;20033;-74
2024/01/12 03:03:49;;;;;;;1999.90;999.90;;;-5.40;96.50;;;;;;5066020;28;20028;-73
2024/01/12 03:06:15;;;;;;;1999.90;999.90;;;-5.30;96.60;;;;;;5072766;28;20036;-75
2024/01/12 03:08:41;;;;;;;1999.90;999.90;;;-5.40;96.50;;;;;;5067748;28;20490;-73
2024/01/12 03:11:06;;;;;;;1999.90;999.90;;;-5.30;96.50;;;;;;5072367;28;20431;-73
2024/01/12 03:13:33;;;;;;;1999.90;999.90;;;-5.50;96.40;;;;;;5071443;28;20029;-73
2024/01/12 03:15:59;;;;;;;1999.90;999.90;;;-5.60;96.50;;;;;;5069019;28;20730;-74
2024/01/12 03:18:25;;;;;;;1999.90;999.90;;;-5.70;96.60;;;;;;5069553;28;20035;-74
2024/01/12 03:20:53;;;;;;;1999.90;999.90;;;-5.70;96.70;;;;;;5070589;28;20025;-74
2024/01/12 03:23:19;;;;;;;1999.90;999.90;;;-5.80;96.50;;;;;;5074099;28;20535;-74
2024/01/12 03:25:44;;;;;;;1999.90;999.90;;;-5.90;96.50;;;;;;5036239;28;20063;-74
2024/01/12 03:28:10;;;;;;;1999.90;999.90;;;-5.80;96.60;;;;;;5067872;28;20037;-73
2024/01/12 03:30:36;;;;;;;1999.90;999.90;;;-5.80;96.70;;;;;;5070820;28;20035;-73
2024/01/12 03:33:01;;;;;;;1999.90;999.90;;;-5.80;96.70;;;;;;5046518;28;20048;-74
2024/01/12 03:35:27;;;;;;;1999.90;999.90;;;-5.70;96.70;;;;;;5043086;28;20125;-73
2024/01/12 03:37:53;;;;;;;1999.90;999.90;;;-5.70;96.50;;;;;;5069615;28;20028;-74
2024/01/12 03:40:19;;;;;;;1999.90;999.90;;;-5.80;96.60;;;;;;5069721;28;20517;-74
2024/01/12 03:42:48;;;;;;;1999.90;999.90;;;-5.80;96.50;;;;;;5067681;28;20029;-74
2024/01/12 03:45:13;;;;;;;1999.90;999.90;;;-5.80;96.50;;;;;;5073369;28;20028;-73
2024/01/12 03:47:39;;;;;;;1999.90;999.90;;;-5.90;96.60;;;;;;5068884;28;20043;-73
2024/01/12 03:50:05;;;;;;;1999.90;999.90;;;-5.80;96.60;;;;;;5058182;28;20040;-74
2024/01/12 03:52:31;;;;;;;1999.90;999.90;;;-5.90;96.60;;;;;;5071049;28;20033;-73
2024/01/12 03:54:56;;;;;;;1999.90;999.90;;;-6.00;96.50;;;;;;5055526;28;20028;-74
2024/01/12 03:57:22;;;;;;;1999.90;999.90;;;-6.00;96.60;;;;;;5049771;28;20029;-74
2024/01/12 03:59:47;;;;;;;1999.90;999.90;;;-6.00;96.60;;;;;;5065390;28;20479;-74
2024/01/12 04:02:17;;;;;;;1999.90;999.90;;;-5.90;96.70;;;;;;5065559;28;20490;-73
2024/01/12 04:04:43;;;;;;;1999.90;999.90;;;-5.90;96.80;;;;;;5056947;28;20041;-73
2024/01/12 04:07:09;;;;;;;1999.90;999.90;;;-5.80;96.80;;;;;;5073668;28;20048;-74
2024/01/12 04:09:35;;;;;;;1999.90;999.90;;;-5.90;96.60;;;;;;5038105;28;20697;-73
2024/01/12 04:12:00;;;;;;;1999.90;999.90;;;-5.90;96.70;;;;;;5070313;28;20032;-73
2024/01/12 04:14:26;;;;;;;1999.90;999.90;;;-5.90;96.60;;;;;;5069076;28;20039;-74
2024/01/12 04:16:52;;;;;;;1999.90;999.90;;;-5.90;96.70;;;;;;5051939;28;20025;-74
2024/01/12 04:19:20;;;;;;;1999.90;999.90;;;-5.80;96.60;;;;;;5065998;28;20027;-73
2024/01/12 04:21:46;;;;;;;1999.90;999.90;;;-5.80;96.70;;;;;;5070589;28;20060;-73
2024/01/12 04:24:12;;;;;;;1999.90;999.90;;;-5.80;96.80;;;;;;5071920;28;20029;-73
2024/01/12 04:26:37;;;;;;;1999.90;999.90;;;-5.80;96.50;;;;;;5068285;28;20035;-74
2024/01/12 04:29:04;;;;;;;1999.90;999.90;;;-5.70;96.80;;;;;;5046158;28;20052;-74
2024/01/12 04:31:30;;;;;;;1999.90;999.90;;;-5.80;96.60;;;;;;5070719;28;20106;-74
2024/01/12 04:33:56;;;;;;;1999.90;999.90;;;-5.80;96.60;;;;;;5066879;28;20452;-73
2024/01/12 04:36:22;;;;;;;1999.90;999.90;;;-5.90;96.50;;;;;;5070852;28;20132;-73
2024/01/12 04:38:48;;;;;;;1999.90;999.90;;;-6.00;96.40;;;;;;5042045;28;20633;-73
2024/01/12 04:41:14;;;;;;;1999.90;999.90;;;-6.00;96.60;;;;;;5079877;28;20036;-73
2024/01/12 04:43:39;;;;;;;1999.90;999.90;;;-6.20;96.50;;;;;;5056006;28;20044;-74
2024/01/12 04:46:05;;;;;;;1999.90;999.90;;;-6.00;96.60;;;;;;5039336;28;20112;-74
2024/01/12 04:48:31;;;;;;;1999.90;999.90;;;-6.00;96.60;;;;;;5053718;28;20086;-73
2024/01/12 04:50:57;;;;;;;1999.90;999.90;;;-5.90;96.70;;;;;;5067092;28;20100;-73
2024/01/12 04:53:22;;;;;;;1999.90;999.90;;;-5.90;96.60;;;;;;5054269;28;20036;-74
2024/01/12 04:55:48;;;;;;;1999.90;999.90;;;-5.90;96.70;;;;;;5053493;28;20036;-73
2024/01/12 04:58:14;;;;;;;1999.90;999.90;;;-5.80;96.60;;;;;;5064821;28;20100;-74
2024/01/12 05:00:39;;;;;;;1999.90;999.90;;;-5.90;96.50;;;;;;5070820;28;20024;-74
2024/01/12 05:03:05;;;;;;;1999.90;999.90;;;-5.90;96.60;;;;;;5062054;28;20024;-74
2024/01/12 05:05:31;;;;;;;1999.90;999.90;;;-5.90;96.50;;;;;;5071156;28;20040;-73
2024/01/12 05:08:00;;;;;;;1999.90;999.90;;;-6.00;96.40;;;;;;5064689;28;20028;-74
2024/01/12 05:10:25;;;;;;;1999.90;999.90;;;-5.90;96.50;;;;;;5070533;28;20140;-74
2024/01/12 05:12:51;;;;;;;1999.90;999.90;;;-5.90;96.40;;;;;;5049721;28;20551;-74
2024/01/12 05:15:17;;;;;;;1999.90;999.90;;;-5.90;96.20;;;;;;5068720;28;20681;-74
2024/01/12 05:17:44;;;;;;;1999.90;999.90;;;-5.90;96.20;;;;;;5053641;28;20440;-74
2024/01/12 05:20:10;;;;;;;1999.90;999.90;;;-5.80;96.20;;;;;;5067176;28;20047;-74
2024/01/12 05:22:36;;;;;;;1999.90;999.90;;;-5.90;96.10;;;;;;5074170;28;20045;-74
2024/01/12 05:25:05;;;;;;;1999.90;999.90;;;-5.90;96.10;;;;;;5067212;28;20024;-74
2024/01/12 05:27:33;;;;;;;1999.90;999.90;;;-6.00;96.20;;;;;;5052763;28;20033;-74
2024/01/12 05:29:59;;;;;;;1999.90;999.90;;;-6.00;96.10;;;;;;5068999;28;20085;-75
2024/01/12 05:32:25;;;;;;;1999.90;999.90;;;-6.10;96.10;;;;;;5071426;28;20028;-74
2024/01/12 05:34:53;;;;;;;1999.90;999.90;;;-6.10;96.00;;;;;;5070652;28;20032;-74
2024/01/12 05:37:21;;;;;;;1999.90;999.90;;;-6.20;96.10;;;;;;5054502;28;20678;-75
2024/01/12 05:39:47;;;;;;;1999.90;999.90;;;-6.10;96.10;;;;;;5069324;28;20036;-76
2024/01/12 05:42:13;;;;;;;1999.90;999.90;;;-6.10;96.00;;;;;;5052524;28;20741;-77
2024/01/12 05:44:38;;;;;;;1999.90;999.90;;;-6.30;95.80;;;;;;5037677;28;20043;-75
2024/01/12 05:47:04;;;;;;;1999.90;999.90;;;-6.40;96.10;;;;;;5054398;28;20052;-75
2024/01/12 05:49:30;;;;;;;1999.90;999.90;;;-6.40;96.00;;;;;;5063163;28;20025;-76
2024/01/12 05:51:56;;;;;;;1999.90;999.90;;;-6.40;96.00;;;;;;5066758;28;20127;-75
2024/01/12 05:54:22;;;;;;;1999.90;999.90;;;-6.40;96.10;;;;;;5054049;28;20360;-75
2024/01/12 05:56:47;;;;;;;1999.90;999.90;;;-6.60;96.00;;;;;;5067137;28;20036;-76
2024/01/12 05:59:13;;;;;;;1999.90;999.90;;;-6.50;96.10;;;;;;5068998;28;20025;-76
2024/01/12 06:01:39;;;;;;;1999.90;999.90;;;-6.60;96.00;;;;;;5071879;28;21365;-76
2024/01/12 06:04:05;;;;;;;1999.90;999.90;;;-6.60;96.10;;;;;;5067650;28;20052;-75
2024/01/12 06:06:30;;;;;;;1999.90;999.90;;;-6.70;96.10;;;;;;5070713;28;20594;-75
2024/01/12 06:08:56;;;;;;;1999.90;999.90;;;-6.40;96.40;;;;;;5066101;28;20046;-75
2024/01/12 06:11:22;;;;;;;1999.90;999.90;;;-6.40;96.30;;;;;;5038197;28;20036;-75
2024/01/12 06:13:48;;;;;;;1999.90;999.90;;;-6.40;96.20;;;;;;5071307;28;20057;-76
2024/01/12 06:16:14;;;;;;;1999.90;999.90;;;-6.40;96.30;;;;;;5066314;28;20028;-75
2024/01/12 06:18:40;;;;;;;1999.90;999.90;;;-6.60;96.20;;;;;;5066356;28;20585;-75
2024/01/12 06:21:05;;;;;;;1999.90;999.90;;;-6.50;96.30;;;;;;5054732;28;20070;-75
2024/01/12 06:23:31;;;;;;;1999.90;999.90;;;-6.60;96.10;;;;;;5066006;28;20731;-75
2024/01/12 06:25:57;;;;;;;1999.90;999.90;;;-6.50;96.30;;;;;;5067064;28;20104;-76
2024/01/12 06:28:23;;;;;;;1999.90;999.90;;;-6.50;96.20;;;;;;5066731;28;20491;-76
2024/01/12 06:30:48;;;;;;;1999.90;999.90;;;-6.50;96.10;;;;;;5072635;28;20063;-74
2024/01/12 06:33:14;;;;;;;1999.90;999.90;;;-6.50;96.10;;;;;;5070014;28;20024;-77
2024/01/12 06:35:40;;;;;;;1999.90;999.90;;;-6.50;96.10;;;;;;5049452;28;20036;-75
2024/01/12 06:38:06;;;;;;;1999.90;999.90;;;-6.70;95.90;;;;;;5068056;28;20303;-76
2024/01/12 06:40:31;;;;;;;1999.90;999.90;;;-6.70;95.90;;;;;;5067736;28;20080;-75
2024/01/12 06:42:57;;;;;;;1999.90;999.90;;;-6.60;96.00;;;;;;5071416;28;20036;-75
2024/01/12 06:45:23;;;;;;;1999.90;999.90;;;-6.70;95.90;;;;;;5059309;28;20036;-75
2024/01/12 06:47:48;;;;;;;1999.90;999.90;;;-6.80;95.90;;;;;;5073473;28;20510;-76
2024/01/12 06:50:14;;;;;;;1999.90;999.90;;;-6.90;95.90;;;;;;5064766;28;20083;-75
2024/01/12 06:52:40;;;;;;;1999.90;999.90;;;-6.90;96.00;;;;;;5063418;28;20032;-75
2024/01/12 06:55:06;;;;;;;1999.90;999.90;;;-6.80;96.10;;;;;;5059921;28;20033;-75
2024/01/12 06:57:32;;;;;;;1999.90;999.90;;;-6.80;96.20;;;;;;5062352;28;20036;-76
2024/01/12 06:59:58;;;;;;;1999.90;999.90;;;-7.00;96.00;;;;;;5079621;28;20032;-76
2024/01/12 07:02:23;;;;;;;1999.90;999.90;;;-7.00;96.10;;;;;;5085594;28;20545;-76
2024/01/12 07:04:49;;;;;;;1999.90;999.90;;;-6.90;96.10;;;;;;5065522;28;20034;-76
2024/01/12 07:07:15;;;;;;;1999.90;999.90;;;-6.90;96.10;;;;;;5063199;28;20032;-78
2024/01/12 07:09:42;;;;;;;1999.90;999.90;;;-6.90;96.10;;;;;;5079656;28;20051;-77
2024/01/12 07:12:07;;;;;;;1999.90;999.90;;;-7.00;95.90;;;;;;5079358;28;20115;-79
2024/01/12 07:14:33;;;;;;;1999.90;999.90;;;-6.90;96.10;;;;;;5072793;28;20089;-78
2024/01/12 07:16:59;;;;;;;1999.90;999.90;;;-6.90;96.00;;;;;;5079439;28;20069;-78
2024/01/12 07:19:24;;;;;;;1999.90;999.90;;;-7.10;95.90;;;;;;5061695;28;20132;-78
2024/01/12 07:21:51;;;;;;;1999.90;999.90;;;-7.00;96.00;;;;;;5075479;28;20476;-78
2024/01/12 07:24:17;;;;;;;1999.90;999.90;;;-6.90;96.10;;;;;;5054129;28;20063;-79
2024/01/12 07:26:42;;;;;;;1999.90;999.90;;;-6.90;96.10;;;;;;5076862;28;20028;-78
2024/01/12 07:29:08;;;;;;;1999.90;999.90;;;-6.90;96.00;;;;;;5074897;28;20033;-78
2024/01/12 07:31:36;;;;;;;1999.90;999.90;;;-6.80;96.00;;;;;;5071581;28;20029;-78
2024/01/12 07:34:05;;;;;;;1999.90;999.90;;;-6.80;95.90;;;;;;5065697;28;20513;-78
2024/01/12 07:36:30;;;;;;;1999.90;999.90;;;-6.80;95.80;;;;;;5071344;28;20029;-79
2024/01/12 07:38:57;;;;;;;1999.90;999.90;;;-6.90;95.70;;;;;;5070471;28;20051;-79
2024/01/12 07:41:23;;;;;;;1999.90;999.90;;;-6.90;95.80;;;;;;5075339;28;20432;-79
2024/01/12 07:43:49;;;;;;;1999.90;999.90;;;-6.90;95.80;;;;;;5071058;28;20493;-79
2024/01/12 07:46:18;;;;;;;1999.90;999.90;;;-6.80;95.90;;;;;;5068011;28;20453;-78
2024/01/12 07:48:49;;;;;;;1999.90;999.90;;;-6.80;95.70;;;;;;5065401;28;20115;-78
2024/01/12 07:51:15;;;;;;;;;;;-6.80;95.80;;;;;;5068435;28;20024;-78
2024/01/12 07:53:41;;;;;;;1999.90;999.90;;;-6.80;95.80;;;;;;5068633;28;19982;-78
2024/01/12 07:56:07;;;;;;;1999.90;999.90;;;-6.80;95.80;;;;;;5064830;28;20495;-79
2024/01/12 07:58:33;;;;;;;1999.90;999.90;;;-6.70;95.90;;;;;;5065340;28;20025;-79
2024/01/12 08:00:59;;;;;;;1999.90;999.90;;;-6.80;95.80;;;;;;5068381;28;20038;-79
2024/01/12 08:03:24;;;;;;;1999.90;999.90;;;-6.80;95.60;;;;;;5070234;28;20017;-79
2024/01/12 08:05:51;;;;;;;1999.90;999.90;;;-6.60;95.80;;;;;;5069841;28;20032;-79
2024/01/12 08:08:18;;;;;;;1999.90;999.90;;;-6.50;95.70;;;;;;5049349;28;20041;-79
2024/01/12 08:10:44;;;;;;;1999.90;999.90;;;-6.40;95.70;;;;;;5066770;28;20036;-79
2024/01/12 08:13:10;;;;;;;1999.90;999.90;;;-6.20;95.60;;;;;;5075639;28;20035;-79
2024/01/12 08:15:36;;;;;;;1999.90;999.90;;;-6.30;95.30;;;;;;5049954;28;20081;-78
2024/01/12 08:18:02;;;;;;;1999.90;999.90;;;-6.40;95.10;;;;;;5055323;28;20025;-79
2024/01/12 08:20:28;;;;;;;1999.90;999.90;;;-6.50;95.10;;;;;;5059346;28;20070;-79
2024/01/12 08:22:53;;;;;;;1999.90;999.90;;;-6.50;95.00;;;;;;5052001;28;20556;-79
2024/01/12 08:25:19;;;;;;;1999.90;999.90;;;-6.40;95.10;;;;;;5050298;28;20036;-79
2024/01/12 08:27:45;;;;;;;1999.90;999.90;;;-6.50;94.80;;;;;;5064496;28;20039;-79
2024/01/12 08:30:11;;;;;;;1999.90;999.90;;;-6.70;95.00;;;;;;5047039;28;20567;-79
2024/01/12 08:32:37;;;;;;;1999.90;999.90;;;-6.70;95.00;;;;;;5066590;28;20035;-79
2024/01/12 08:35:02;;;;;;;1999.90;999.90;;;-6.70;94.70;;;;;;5058582;28;20541;-79
2024/01/12 08:37:28;;;;;;;1999.90;999.90;;;-6.70;94.90;;;;;;5052587;28;20036;-79
2024/01/12 08:39:54;;;;;;;1999.90;999.90;;;-6.70;95.10;;;;;;5064668;28;20036;-79
2024/01/12 08:42:20;;;;;;;1999.90;999.90;;;-6.60;95.00;;;;;;5032087;28;20116;-79
2024/01/12 08:44:45;;;;;;;1999.90;999.90;;;-6.90;94.90;;;;;;5065965;28;20080;-79
2024/01/12 08:47:11;;;;;;;1999.90;999.90;;;-6.80;95.10;;;;;;5035076;28;20020;-79
2024/01/12 08:49:36;;;;;;;1999.90;999.90;;;-6.70;95.10;;;;;;5047109;28;20135;-80
2024/01/12 08:52:02;;;;;;;1999.90;999.90;;;-6.70;95.00;;;;;;5065653;28;20123;-79
2024/01/12 08:54:28;;;;;;;1999.90;999.90;;;-6.70;95.00;;;;;;5036986;28;20041;-79
2024/01/12 08:56:54;;;;;;;1999.90;999.90;;;-6.60;95.10;;;;;;5046980;28;20051;-79
2024/01/12 08:59:20;;;;;;;1999.90;999.90;;;-6.50;95.10;;;;;;5068462;28;20039;-79
2024/01/12 09:01:47;;;;;;;1999.90;999.90;;;-6.60;94.90;;;;;;5041009;28;20118;-79
2024/01/12 09:04:13;;;;;;;1999.90;999.90;;;-6.60;94.80;;;;;;5069458;28;20043;-79
2024/01/12 09:06:39;;;;;;;1999.90;999.90;;;-6.60;94.70;;;;;;5066564;28;20032;-79
2024/01/12 09:09:04;;;;;;;1999.90;999.90;;;-6.60;94.60;;;;;;5063269;28;20028;-80
2024/01/12 09:11:33;;;;;;;1999.90;999.90;;;-6.70;94.60;;;;;;5048396;28;20043;-80
2024/01/12 09:13:58;;;;;;;1999.90;999.90;;;-6.50;94.70;;;;;;5046044;28;20052;-80
2024/01/12 09:16:24;;;;;;;1999.90;999.90;;;-6.50;94.70;;;;;;5046039;28;20048;-80
2024/01/12 09:18:49;;;;;;;1999.90;999.90;;;-6.40;94.80;;;;;;5029901;28;20035;-79
2024/01/12 09:21:15;;;;;;;1999.90;999.90;;;-6.30;94.70;;;;;;5065313;28;20045;-79
2024/01/12 09:23:45;;;;;;;1999.90;999.90;;;-6.30;94.60;;;;;;5026060;28;20044;-79
2024/01/12 09:26:11;;;;;;;1999.90;999.90;;;-6.20;94.60;;;;;;5049383;28;20028;-79
2024/01/12 09:28:38;;;;;;;1999.90;999.90;;;-6.10;94.80;;;;;;5064344;28;20038;-79
2024/01/12 09:31:04;;;;;;;1999.90;999.90;;;-6.10;94.70;;;;;;5068169;28;20036;-79
2024/01/12 09:33:30;;;;;;;1999.90;999.90;;;-6.00;94.70;;;;;;5044874;28;20041;-79
2024/01/12 09:35:56;;;;;;;1999.90;999.90;;;-6.00;94.80;;;;;;5065905;28;20055;-79
2024/01/12 09:38:21;;;;;;;1999.90;999.90;;;-5.90;94.80;;;;;;5063239;28;20406;-83
2024/01/12 09:40:48;;;;;;;1999.90;999.90;;;-5.80;94.80;;;;;;5063320;28;20118;-76
2024/01/12 09:43:18;;;;;;;1999.90;999.90;;;-5.90;94.50;;;;;;5069344;28;20032;-80
2024/01/12 09:45:45;;;;;;;1999.90;999.90;;;-5.80;94.80;;;;;;5054546;28;20036;-79
2024/01/12 09:48:12;;;;;;;1999.90;999.90;;;-5.70;94.90;;;;;;5068442;28;20025;-80
2024/01/12 09:50:39;;;;;;;1999.90;999.90;;;-5.70;94.80;;;;;;5049559;28;20029;-80
2024/01/12 09:53:05;;;;;;;1999.90;999.90;;;-5.70;94.70;;;;;;5064734;28;20039;-84
2024/01/12 09:55:31;;;;;;;1999.90;999.90;;;-5.70;95.00;;;;;;5070913;28;20793;-76
2024/01/12 09:57:57;;;;;;;1999.90;999.90;;;-5.70;95.00;;;;;;5069071;28;20029;-80
2024/01/12 10:00:26;;;;;;;1999.90;999.90;;;-5.70;94.80;;;;;;5048069;28;20024;-79
2024/01/12 10:02:52;;;;;;;1999.90;999.90;;;-5.60;95.00;;;;;;5045346;28;20046;-80
2024/01/12 10:05:18;;;;;;;1999.90;999.90;;;-5.50;94.90;;;;;;5070768;28;20043;-79
2024/01/12 10:07:44;;;;;;;1999.90;999.90;;;-5.40;95.00;;;;;;5059951;28;20063;-79
2024/01/12 10:10:11;;;;;;;1999.90;999.90;;;-5.30;95.10;;;;;;5062366;28;20153;-80
2024/01/12 10:12:37;;;;;;;1999.90;999.90;;;-5.20;94.90;;;;;;5058713;28;20037;-80
2024/01/12 10:15:09;;;;;;;1999.90;999.90;;;-5.10;95.10;;;;;;5053965;28;20134;-79
2024/01/12 10:17:36;;;;;;;1999.90;999.90;;;-5.10;95.20;;;;;;5071526;28;20036;-79
2024/01/12 10:20:03;;;;;;;1999.90;999.90;;;-5.00;95.20;;;;;;5070333;28;20571;-79
2024/01/12 10:22:30;;;;;;;1999.90;999.90;;;-4.80;95.10;;;;;;5068560;28;20054;-80
2024/01/12 10:25:03;;;;;;;1999.90;999.90;;;-4.60;95.40;;;;;;5073765;28;20033;-79
2024/01/12 10:27:29;;;;;;;1999.90;999.90;;;-4.50;95.10;;;;;;5067781;28;20505;-79
2024/01/12 10:29:56;;;;;;;1999.90;999.90;;;-4.40;95.30;;;;;;5074368;28;20040;-79
2024/01/12 10:32:22;;;;;;;1999.90;999.90;;;-4.70;94.90;;;;;;5052242;28;20115;-79
2024/01/12 10:34:49;;;;;;;1999.90;999.90;;;-4.70;95.20;;;;;;5069244;28;20032;-79
2024/01/12 10:37:16;;;;;;;1999.90;999.90;;;-4.60;95.40;;;;;;5066992;28;20028;-78
2024/01/12 10:39:45;;;;;;;1999.90;999.90;;;-4.30;95.30;;;;;;5073188;28;20063;-79
2024/01/12 10:42:12;;;;;;;1999.90;999.90;;;-4.40;95.40;;;;;;5066694;28;20024;-79
2024/01/12 10:44:42;;;;;;;1999.90;999.90;;;-4.30;95.60;;;;;;5073272;28;20116;-78
2024/01/12 10:47:20;;;;;;;1999.90;999.90;;;-4.20;95.30;;;;;;5068220;28;20025;-79
2024/01/12 10:50:05;;;;;;;1999.90;999.90;;;-4.30;95.60;;;;;;5056165;28;20115;-78
2024/01/12 10:52:55;;;;;;;1999.90;999.90;;;-4.10;95.70;;;;;;5075144;28;20125;-78
2024/01/12 10:55:31;;;;;;;1999.90;999.90;;;-3.90;95.60;;;;;;5051557;28;20318;-78
2024/01/12 10:57:58;;;;;;;1999.90;999.90;;;-3.80;95.50;;;;;;5069606;28;20116;-78
2024/01/12 11:00:24;;;;;;;1999.90;999.90;;;-3.70;95.40;;;;;;5068502;28;20039;-78
2024/01/12 11:02:51;;;;;;;1999.90;999.90;;;-3.70;95.10;;;;;;5069801;28;20058;-78
2024/01/12 11:05:20;;;;;;;1999.90;999.90;;;-3.70;95.40;;;;;;5065914;28;20024;-78
2024/01/12 11:07:47;;;;;;;1999.90;999.90;;;-3.60;95.10;;;;;;5064300;28;20032;-79
2024/01/12 11:10:13;;;;;;;1999.90;999.90;;;-3.80;95.10;;;;;;5050406;28;20033;-78
2024/01/12 11:12:42;;;;;;;1999.90;999.90;;;-3.90;95.00;;;;;;5053801;28;20035;-78
2024/01/12 11:15:08;;;;;;;1999.90;999.90;;;-3.90;95.30;;;;;;5071657;28;20031;-78
2024/01/12 11:17:36;;;;;;;1999.90;999.90;;;-3.80;95.40;;;;;;5035190;28;20491;-78
2024/01/12 11:20:11;;;;;;;1999.90;999.90;;;-3.70;95.40;;;;;;5071863;28;20028;-78
2024/01/12 11:22:43;;;;;;;1999.90;999.90;;;-3.60;95.20;;;;;;5053893;28;20044;-79
2024/01/12 11:25:12;;;;;;;1999.90;999.90;;;-3.70;95.20;;;;;;5069806;28;20755;-77
2024/01/12 11:27:40;;;;;;;1999.90;999.90;;;-3.60;95.10;;;;;;5050046;28;20430;-79
2024/01/12 11:30:09;;;;;;;1999.90;999.90;;;-3.70;95.40;;;;;;5070417;28;20040;-78
2024/01/12 11:32:35;;;;;;;1999.90;999.90;;;-3.60;95.10;;;;;;5067285;28;20056;-78
2024/01/12 11:35:13;;;;;;;1999.90;999.90;;;-3.70;94.70;;;;;;5072805;28;20626;-78
2024/01/12 11:37:43;;;;;;;1999.90;999.90;;;-3.80;94.90;;;;;;5070739;28;20035;-79
2024/01/12 11:40:12;;;;;;;1999.90;999.90;;;-3.70;95.60;;;;;;5075230;28;20081;-73
2024/01/12 11:42:43;;;;;;;1999.90;999.90;;;-3.50;95.20;;;;;;5057888;28;20601;-79
2024/01/12 11:45:11;;;;;;;1999.90;999.90;;;-3.50;95.10;;;;;;5077685;28;20051;-79
2024/01/12 11:47:42;;;;;;;1999.90;999.90;;;-3.40;95.60;;;;;;5078656;28;20087;-79
2024/01/12 11:50:09;;;;;;;1999.90;999.90;;;-3.40;94.70;;;;;;5074933;28;20032;-80
2024/01/12 11:52:36;;;;;;;1999.90;999.90;;;-3.50;95.20;;;;;;5072081;28;20117;-81
2024/01/12 11:55:04;;;;;;;1999.90;999.90;;;-3.60;95.40;;;;;;5070283;28;20042;-77
2024/01/12 11:57:30;;;;;;;1999.90;999.90;;;-3.40;95.10;;;;;;5068998;28;20469;-75
2024/01/12 11:59:56;;;;;;;1999.90;999.90;;;-3.30;95.50;;;;;;5069258;28;20032;-79